Time;durP1;ratioP1;P1;durP2;ratioP2;P2;SDS_P1;SDS_P2;PMS_P1;PMS_P2;Temp;Humidity;BMP_temperature;BMP_pressure;BME280_temperature;BME280_humidity;BME280_pressure;Samples;Min_cycle;Max_cycle;Signal;HPM_P1;HPM_P2
2023/12/29 00:01:05;;;;;;;8.15;4.32;;;;;;;9.98;77.07;100632.34;4164040;28;20574;-58
2023/12/29 00:03:08;;;;;;;6.32;3.90;;;;;;;10.00;76.95;100635.84;4163856;28;20410;-58
2023/12/29 00:05:11;;;;;;;6.63;4.15;;;;;;;9.96;77.71;100647.03;4163375;28;20064;-59
2023/12/29 00:07:13;;;;;;;6.60;4.10;;;;;;;9.96;77.25;100641.84;4179057;28;20033;-58
2023/12/29 00:09:20;;;;;;;7.63;4.32;;;;;;;9.93;77.20;100640.06;4162595;28;20041;-59
2023/12/29 00:11:24;;;;;;;7.47;4.28;;;;;;;9.93;77.48;100637.47;4162270;28;20120;-57
2023/12/29 00:13:26;;;;;;;6.28;3.45;;;;;;;9.95;77.58;100640.09;4155450;28;20042;-58
2023/12/29 00:15:29;;;;;;;5.40;3.45;;;;;;;10.02;77.51;100634.16;4150492;28;20034;-59
2023/12/29 00:17:32;;;;;;;7.70;3.95;;;;;;;10.00;77.90;100632.38;4161100;28;20052;-57
2023/12/29 00:19:35;;;;;;;7.25;3.83;;;;;;;10.10;76.87;100636.91;4163679;28;20044;-57
2023/12/29 00:21:38;;;;;;;7.40;4.93;;;;;;;10.04;77.20;100641.97;4160158;28;20083;-58
2023/12/29 00:23:41;;;;;;;6.10;3.60;;;;;;;10.15;77.40;100632.69;4163017;28;20065;-59
2023/12/29 00:25:45;;;;;;;8.45;4.25;;;;;;;10.09;77.41;100630.84;4159684;28;20107;-58
2023/12/29 00:27:49;;;;;;;10.43;5.07;;;;;;;10.01;78.03;100626.34;4163564;28;20091;-59
2023/12/29 00:29:52;;;;;;;8.18;4.40;;;;;;;10.02;77.46;100634.16;4158506;28;20037;-58
2023/12/29 00:31:56;;;;;;;7.30;3.70;;;;;;;10.09;78.00;100623.03;4160085;28;20653;-58
2023/12/29 00:33:59;;;;;;;5.77;4.13;;;;;;;10.11;77.71;100628.28;4154354;28;20037;-57
2023/12/29 00:36:02;;;;;;;8.85;4.75;;;;;;;10.05;78.25;100625.56;4159757;28;20349;-57
2023/12/29 00:38:04;;;;;;;6.45;3.92;;;;;;;10.06;77.55;100612.59;4154303;28;20045;-58
2023/12/29 00:40:09;;;;;;;7.88;3.95;;;;;;;10.12;77.87;100623.09;4159196;28;20839;-58
2023/12/29 00:42:13;;;;;;;8.20;4.00;;;;;;;10.18;78.04;100629.25;4160678;28;20087;-59
2023/12/29 00:44:17;;;;;;;5.15;3.58;;;;;;;10.05;77.36;100628.16;4159395;28;20126;-57
2023/12/29 00:46:19;;;;;;;6.10;3.85;;;;;;;10.08;77.39;100634.28;4154458;28;20100;-58
2023/12/29 00:48:22;;;;;;;5.88;3.72;;;;;;;10.15;77.64;100622.28;4145278;28;20046;-57
2023/12/29 00:50:24;;;;;;;7.70;3.55;;;;;;;10.12;77.01;100624.84;4157999;28;20034;-56
2023/12/29 00:52:28;;;;;;;5.82;3.88;;;;;;;10.22;76.92;100623.25;4177598;28;20033;-59
2023/12/29 00:54:31;;;;;;;6.57;3.47;;;;;;;10.16;77.10;100625.75;4161550;28;20124;-58
2023/12/29 00:56:34;;;;;;;10.23;4.18;;;;;;;10.12;77.11;100620.50;4175491;28;20510;-59
2023/12/29 00:58:39;;;;;;;7.35;4.00;;;;;;;10.11;77.91;100617.88;4162129;28;20033;-58
2023/12/29 01:00:41;;;;;;;6.95;4.60;;;;;;;10.15;77.20;100619.69;4156213;28;20120;-59
2023/12/29 01:02:45;;;;;;;5.82;3.85;;;;;;;10.16;77.52;100610.16;4161425;28;20550;-59
2023/12/29 01:04:48;;;;;;;7.18;3.75;;;;;;;10.08;77.78;100621.28;4143759;28;20068;-59
2023/12/29 01:06:50;;;;;;;6.78;3.63;;;;;;;10.09;77.97;100617.84;4160461;28;20032;-59
2023/12/29 01:08:53;;;;;;;7.93;4.13;;;;;;;10.13;77.84;100611.88;4159668;28;20037;-59
2023/12/29 01:10:56;;;;;;;6.20;4.10;;;;;;;10.24;76.87;100611.19;4159635;28;20038;-59
2023/12/29 01:12:59;;;;;;;5.75;4.03;;;;;;;10.18;76.92;100613.66;4158812;28;20518;-59
2023/12/29 01:15:04;;;;;;;7.70;4.80;;;;;;;10.19;77.76;100602.41;4155069;28;20487;-57
2023/12/29 01:17:07;;;;;;;6.72;4.75;;;;;;;10.21;76.59;100603.34;4161101;28;20044;-60
2023/12/29 01:19:09;;;;;;;8.65;5.13;;;;;;;10.24;76.50;100604.25;4156741;28;20072;-58
2023/12/29 01:21:12;;;;;;;7.22;4.75;;;;;;;10.17;77.17;100609.31;4163671;28;20041;-58
2023/12/29 01:23:16;;;;;;;6.82;4.40;;;;;;;10.12;77.06;100606.66;4158553;28;20076;-58
2023/12/29 01:25:19;;;;;;;7.85;5.10;;;;;;;10.11;76.71;100613.53;4161886;28;20636;-59
2023/12/29 01:27:22;;;;;;;7.28;4.50;;;;;;;10.12;76.85;100615.31;4158954;28;20037;-57
2023/12/29 01:29:25;;;;;;;7.40;4.55;;;;;;;10.11;76.81;100623.94;4158559;28;20113;-58
2023/12/29 01:31:31;;;;;;;6.82;4.43;;;;;;;10.11;77.43;100618.75;4155318;28;20041;-58
2023/12/29 01:33:33;;;;;;;7.60;4.40;;;;;;;10.09;77.13;100630.84;4162099;28;20041;-57
2023/12/29 01:35:36;;;;;;;7.85;4.40;;;;;;;10.09;77.48;100630.84;4160816;28;20354;-59
2023/12/29 01:37:39;;;;;;;6.00;4.35;;;;;;;9.98;77.11;100624.56;4165177;28;20037;-59
2023/12/29 01:39:42;;;;;;;10.15;4.55;;;;;;;10.03;77.10;100609.94;4163896;28;20160;-58
2023/12/29 01:41:45;;;;;;;6.88;4.40;;;;;;;10.10;76.53;100621.31;4161954;28;20044;-59
2023/12/29 01:44:19;;;;;;;8.02;4.50;;;;;;;10.08;76.79;100612.63;4163066;28;20033;-58
2023/12/29 01:46:23;;;;;;;8.60;4.45;;;;;;;9.95;77.49;100608.91;4163568;28;20041;-58
2023/12/29 01:48:27;;;;;;;9.13;4.07;;;;;;;9.95;77.76;100598.53;4155622;28;20460;-60
2023/12/29 01:50:30;;;;;;;6.05;4.45;;;;;;;10.07;77.14;100596.16;4163780;28;20383;-58
2023/12/29 01:52:34;;;;;;;8.05;4.47;;;;;;;10.06;77.32;100594.41;4162800;28;20392;-58
2023/12/29 01:54:38;;;;;;;8.07;4.28;;;;;;;10.01;76.73;100598.63;4162701;28;20034;-60
2023/12/29 01:56:42;;;;;;;7.70;4.93;;;;;;;10.06;76.94;100589.22;4161337;28;20458;-60
2023/12/29 01:58:47;;;;;;;7.45;4.50;;;;;;;10.16;76.26;100586.78;4162702;28;20083;-57
2023/12/29 02:00:50;;;;;;;;;;;;;;;9.95;77.29;100588.13;4163807;28;20120;-55
2023/12/29 02:02:53;;;;;;;7.35;3.97;;;;;;;10.00;76.75;100573.50;4162981;28;19928;-59
2023/12/29 02:04:58;;;;;;;6.78;4.32;;;;;;;9.94;77.17;100578.59;4153700;28;20443;-59
2023/12/29 02:07:00;;;;;;;5.85;4.00;;;;;;;9.98;76.81;100574.34;4162921;28;20072;-59
2023/12/29 02:09:04;;;;;;;7.90;4.90;;;;;;;9.94;77.41;100560.41;4161181;28;20041;-56
2023/12/29 02:11:07;;;;;;;6.30;4.07;;;;;;;9.95;76.72;100560.44;4163621;28;20552;-59
2023/12/29 02:13:10;;;;;;;7.25;4.47;;;;;;;9.93;76.68;100556.09;4157463;28;20559;-55
2023/12/29 02:15:14;;;;;;;6.88;4.18;;;;;;;9.94;76.88;100563.00;4162058;28;20073;-57
2023/12/29 02:17:23;;;;;;;5.82;4.20;;;;;;;9.99;76.81;100566.59;4163357;28;20037;-57
2023/12/29 02:19:39;;;;;;;5.95;4.20;;;;;;;9.96;76.37;100566.53;4162731;28;20088;-54
2023/12/29 02:21:44;;;;;;;6.55;4.78;;;;;;;9.86;76.93;100554.22;4163239;28;20476;-56
2023/12/29 02:23:47;;;;;;;5.03;3.88;;;;;;;9.89;77.18;100559.47;4158339;28;20033;-58
2023/12/29 02:25:56;;;;;;;5.25;3.58;;;;;;;9.84;76.68;100555.91;4157708;28;20044;-57
2023/12/29 02:28:05;;;;;;;6.15;3.97;;;;;;;9.84;76.46;100562.00;4153790;28;20045;-57
2023/12/29 02:30:12;;;;;;;5.32;4.07;;;;;;;9.93;76.03;100563.88;4158897;28;20499;-57
2023/12/29 02:32:18;;;;;;;5.57;3.22;;;;;;;9.90;76.06;100556.91;4161712;28;20501;-54
2023/12/29 02:34:24;;;;;;;5.18;3.50;;;;;;;9.89;75.94;100557.72;4163151;28;20120;-59
2023/12/29 02:36:27;;;;;;;5.90;4.00;;;;;;;9.89;76.43;100567.25;4162798;28;20042;-58
2023/12/29 02:38:30;;;;;;;7.32;4.28;;;;;;;9.96;76.04;100556.16;4155468;28;20067;-57
2023/12/29 02:40:33;;;;;;;7.63;3.90;;;;;;;9.87;75.63;100563.75;4162865;28;20476;-57
2023/12/29 02:42:38;;;;;;;6.72;4.20;;;;;;;9.83;76.54;100562.81;4159312;28;20034;-56
2023/12/29 02:44:41;;;;;;;5.60;3.17;;;;;;;9.91;76.05;100574.22;4162881;28;20036;-59
2023/12/29 02:46:44;;;;;;;6.85;3.35;;;;;;;9.83;76.54;100569.72;4162739;28;20073;-59
2023/12/29 02:48:47;;;;;;;6.00;3.28;;;;;;;9.84;75.64;100567.19;4148211;28;20045;-54
2023/12/29 02:50:49;;;;;;;4.32;3.13;;;;;;;9.88;76.23;100565.50;4161717;28;20092;-57
2023/12/29 02:52:52;;;;;;;5.13;3.33;;;;;;;9.84;75.82;100571.47;4163692;28;20059;-58
2023/12/29 02:54:55;;;;;;;5.28;3.15;;;;;;;9.86;75.54;100568.06;4171525;28;20049;-58
2023/12/29 02:56:57;;;;;;;7.03;3.33;;;;;;;9.91;76.19;100565.56;4159869;28;20044;-57
2023/12/29 02:59:01;;;;;;;4.95;2.75;;;;;;;9.95;75.02;100569.97;4160653;28;20123;-57
2023/12/29 03:01:04;;;;;;;6.47;3.35;;;;;;;9.90;75.57;100572.47;4160277;28;20052;-58
2023/12/29 03:03:07;;;;;;;5.65;3.67;;;;;;;9.98;75.09;100575.22;4163507;28;20063;-58
2023/12/29 03:05:10;;;;;;;4.07;2.75;;;;;;;10.01;75.08;100570.06;4162285;28;20041;-58
2023/12/29 03:07:12;;;;;;;4.93;2.90;;;;;;;9.87;75.49;100568.94;4162413;28;20466;-59
2023/12/29 03:09:15;;;;;;;6.43;3.47;;;;;;;9.85;76.01;100563.72;4162022;28;20069;-58
2023/12/29 03:11:17;;;;;;;4.20;2.72;;;;;;;9.88;75.85;100563.75;4163601;28;20099;-59
2023/12/29 03:13:20;;;;;;;5.70;2.88;;;;;;;9.92;75.87;100564.72;4163116;28;20064;-58
2023/12/29 03:15:24;;;;;;;6.40;3.00;;;;;;;9.87;75.83;100564.63;4160767;28;20400;-59
2023/12/29 03:17:26;;;;;;;5.47;2.85;;;;;;;9.88;75.28;100565.50;4152203;28;20026;-57
2023/12/29 03:19:30;;;;;;;5.15;3.40;;;;;;;9.89;75.38;100559.47;4162636;28;20069;-58
2023/12/29 03:21:34;;;;;;;5.60;3.15;;;;;;;9.88;75.77;100568.97;4160092;28;20471;-58
2023/12/29 03:23:37;;;;;;;6.00;3.17;;;;;;;9.95;74.49;100570.81;4157437;28;20050;-57
2023/12/29 03:25:40;;;;;;;4.60;3.15;;;;;;;9.90;75.07;100567.28;4161354;28;20447;-59
2023/12/29 03:27:43;;;;;;;4.72;2.88;;;;;;;9.83;75.34;100562.81;4159136;28;20040;-58
2023/12/29 03:29:45;;;;;;;4.35;2.85;;;;;;;9.87;74.66;100571.53;4161171;28;20581;-59
2023/12/29 03:31:50;;;;;;;3.42;2.42;;;;;;;9.85;74.98;100576.69;4161400;28;20128;-58
2023/12/29 03:33:54;;;;;;;6.40;3.00;;;;;;;9.85;75.33;100565.44;4162981;28;20045;-58
2023/12/29 03:35:57;;;;;;;3.90;2.58;;;;;;;9.83;75.31;100568.00;4155231;28;20062;-59
2023/12/29 03:37:59;;;;;;;4.97;2.78;;;;;;;9.84;74.41;100561.09;4161824;28;20105;-57
2023/12/29 03:40:02;;;;;;;5.40;2.20;;;;;;;9.82;74.75;100566.25;4160272;28;20045;-57
2023/12/29 03:42:05;;;;;;;8.20;3.50;;;;;;;9.82;74.65;100570.59;4164071;28;20041;-58
2023/12/29 03:44:08;;;;;;;5.40;2.83;;;;;;;9.78;75.29;100562.75;4160430;28;20042;-58
2023/12/29 03:46:18;;;;;;;4.88;2.88;;;;;;;9.84;75.17;100561.09;4153124;28;20029;-57
2023/12/29 03:48:22;;;;;;;7.90;2.78;;;;;;;9.82;74.68;100562.78;4170196;28;20491;-58
2023/12/29 03:50:26;;;;;;;4.13;2.58;;;;;;;9.79;75.44;100561.88;4161789;28;20037;-56
2023/12/29 03:52:29;;;;;;;3.70;2.20;;;;;;;9.84;75.15;100558.50;4160918;28;20037;-58
2023/12/29 03:54:32;;;;;;;3.92;2.63;;;;;;;9.86;74.59;100554.22;4159254;28;20042;-58
2023/12/29 03:56:35;;;;;;;4.00;2.42;;;;;;;9.84;74.52;100556.78;4143191;28;20076;-59
2023/12/29 03:58:37;;;;;;;5.00;2.85;;;;;;;9.86;75.26;100555.09;4161819;28;20045;-58
2023/12/29 04:00:41;;;;;;;5.68;2.72;;;;;;;9.89;74.57;100560.34;4161464;28;20033;-58
2023/12/29 04:02:45;;;;;;;3.90;2.20;;;;;;;9.93;74.70;100559.56;4162053;28;20037;-59
2023/12/29 04:04:49;;;;;;;4.63;3.00;;;;;;;9.95;74.56;100564.78;4161518;28;20518;-59
2023/12/29 04:06:53;;;;;;;4.82;2.67;;;;;;;9.93;73.78;100562.16;4162653;28;20091;-59
2023/12/29 04:08:55;;;;;;;4.32;2.67;;;;;;;9.97;74.47;100557.88;4160626;28;20091;-58
2023/12/29 04:10:57;;;;;;;3.50;2.30;;;;;;;10.00;73.86;100563.13;4156470;28;20033;-58
2023/12/29 04:13:01;;;;;;;5.18;2.83;;;;;;;10.02;73.59;100558.84;4159920;28;20048;-58
2023/12/29 04:15:04;;;;;;;3.95;2.78;;;;;;;10.02;73.73;100564.03;4160809;28;20486;-58
2023/12/29 04:17:13;;;;;;;6.50;2.93;;;;;;;10.03;73.67;100557.09;4159205;28;20044;-59
2023/12/29 04:19:16;;;;;;;5.03;2.75;;;;;;;10.06;73.83;100557.16;4155991;28;20296;-59
2023/12/29 04:21:21;;;;;;;3.80;2.38;;;;;;;10.08;73.01;100550.28;4140892;28;20136;-57
2023/12/29 04:23:24;;;;;;;4.65;2.60;;;;;;;10.05;73.58;100551.09;4161897;28;20352;-58
2023/12/29 04:25:26;;;;;;;5.65;2.70;;;;;;;9.99;73.17;100563.09;4141406;28;20435;-59
2023/12/29 04:27:29;;;;;;;5.05;2.75;;;;;;;10.01;72.98;100558.81;4149780;28;20045;-59
2023/12/29 04:29:31;;;;;;;3.78;2.75;;;;;;;9.97;73.29;100560.47;4163784;28;20042;-58
2023/12/29 04:31:34;;;;;;;6.78;3.13;;;;;;;10.01;72.88;100549.28;4159441;28;20483;-59
2023/12/29 04:33:37;;;;;;;4.55;3.00;;;;;;;10.01;73.34;100543.22;4161220;28;20033;-59
2023/12/29 04:35:39;;;;;;;4.78;2.95;;;;;;;9.94;73.90;100537.94;4160071;28;20410;-57
2023/12/29 04:37:45;;;;;;;5.07;2.67;;;;;;;9.90;74.09;100545.63;4162455;28;20495;-59
2023/12/29 04:39:48;;;;;;;5.50;3.38;;;;;;;9.83;74.09;100541.16;4154629;28;20045;-58
2023/12/29 04:41:51;;;;;;;3.55;2.75;;;;;;;9.86;73.62;100543.84;4161381;28;20026;-59
2023/12/29 04:43:54;;;;;;;5.97;3.40;;;;;;;9.91;73.51;100537.00;4148341;28;20056;-57
2023/12/29 04:45:57;;;;;;;3.60;2.75;;;;;;;9.87;74.03;100540.38;4150927;28;20114;-59
2023/12/29 04:47:59;;;;;;;4.88;3.28;;;;;;;9.81;73.93;100535.94;4156732;28;20045;-59
2023/12/29 04:50:03;;;;;;;6.10;3.33;;;;;;;9.77;73.74;100542.81;4161416;28;20065;-59
2023/12/29 04:52:06;;;;;;;6.38;3.05;;;;;;;9.74;74.29;100539.28;4157936;28;20041;-59
2023/12/29 04:54:11;;;;;;;5.45;3.50;;;;;;;9.75;74.27;100534.13;4157196;28;20124;-56
2023/12/29 04:56:14;;;;;;;4.53;2.92;;;;;;;9.75;74.00;100535.81;4157978;28;20157;-59
2023/12/29 04:58:16;;;;;;;6.68;3.30;;;;;;;9.71;74.47;100531.41;4165285;28;20037;-59
2023/12/29 05:00:20;;;;;;;4.45;3.17;;;;;;;9.68;74.35;100534.84;4159571;28;20399;-59
2023/12/29 05:02:23;;;;;;;4.45;3.08;;;;;;;9.65;74.74;100528.72;4162767;28;20037;-59
2023/12/29 05:04:26;;;;;;;4.38;3.10;;;;;;;9.61;74.83;100531.25;4165179;28;20096;-58
2023/12/29 05:06:29;;;;;;;4.55;3.08;;;;;;;9.59;74.83;100529.47;4162387;28;20619;-59
2023/12/29 05:08:32;;;;;;;5.82;3.25;;;;;;;9.55;74.93;100525.06;4164355;28;20034;-59
2023/12/29 05:10:36;;;;;;;6.90;3.83;;;;;;;9.52;75.91;100525.00;4165301;28;20038;-59
2023/12/29 05:12:39;;;;;;;6.07;3.80;;;;;;;9.51;75.31;100520.69;4165401;28;20124;-59
2023/12/29 05:14:42;;;;;;;5.00;3.58;;;;;;;9.48;76.11;100525.81;4156117;28;20054;-61
2023/12/29 05:16:45;;;;;;;5.30;3.70;;;;;;;9.48;76.32;100523.22;4162584;28;20081;-59
2023/12/29 05:18:48;;;;;;;6.68;3.80;;;;;;;9.59;76.27;100521.69;4160459;28;20052;-59
2023/12/29 05:20:50;;;;;;;6.25;3.63;;;;;;;9.48;76.01;100526.69;4159079;28;20080;-59
2023/12/29 05:22:53;;;;;;;5.75;3.58;;;;;;;9.61;76.07;100522.59;4164395;28;20045;-59
2023/12/29 05:24:59;;;;;;;8.95;4.30;;;;;;;9.53;75.88;100525.03;4157129;28;20047;-58
2023/12/29 05:27:04;;;;;;;6.72;3.85;;;;;;;9.52;76.13;100522.41;4162839;28;20045;-59
2023/12/29 05:29:07;;;;;;;6.95;3.50;;;;;;;9.50;76.66;100530.16;4167079;28;20095;-59
2023/12/29 05:31:10;;;;;;;7.50;3.40;;;;;;;9.48;76.96;100531.00;4163627;28;20061;-59
2023/12/29 05:33:14;;;;;;;5.72;3.10;;;;;;;9.49;76.57;100532.72;4165793;28;20037;-59
2023/12/29 05:35:16;;;;;;;6.72;3.35;;;;;;;9.57;76.33;100532.03;4164371;28;20068;-59
2023/12/29 05:37:19;;;;;;;8.50;3.50;;;;;;;9.52;76.45;100527.59;4170630;28;20120;-58
2023/12/29 05:39:23;;;;;;;5.10;3.20;;;;;;;9.51;77.23;100533.66;4164924;28;20041;-58
2023/12/29 05:41:26;;;;;;;4.03;2.88;;;;;;;9.48;77.48;100526.69;4160813;28;20037;-59
2023/12/29 05:43:31;;;;;;;6.65;3.60;;;;;;;9.56;76.98;100539.78;4163877;28;20041;-55
2023/12/29 05:45:35;;;;;;;3.95;2.72;;;;;;;9.56;77.24;100534.59;4163159;28;20033;-58
2023/12/29 05:47:38;;;;;;;4.93;2.97;;;;;;;9.59;77.44;100535.56;4165663;28;20033;-55
2023/12/29 05:49:40;;;;;;;4.35;2.97;;;;;;;9.58;77.71;100539.00;4163980;28;20038;-60
2023/12/29 05:51:44;;;;;;;4.85;3.05;;;;;;;9.61;77.81;100543.38;4159024;28;20037;-58
2023/12/29 05:53:47;;;;;;;3.30;2.72;;;;;;;9.68;77.96;100539.16;4162411;28;20507;-60
2023/12/29 05:55:49;;;;;;;4.00;2.53;;;;;;;9.69;77.43;100546.97;4164163;28;20076;-56
2023/12/29 05:57:52;;;;;;;3.83;2.65;;;;;;;9.79;77.05;100535.91;4160817;28;20058;-60
2023/12/29 05:59:57;;;;;;;2.60;1.98;;;;;;;9.76;76.90;100527.19;4163527;28;20045;-60
2023/12/29 06:02:00;;;;;;;;;;;;;;;9.71;77.43;100524.53;4164191;28;20521;-61
2023/12/29 06:04:02;;;;;;;4.80;3.08;;;;;;;9.67;78.06;100532.22;4165560;28;19921;-58
2023/12/29 06:06:06;;;;;;;5.78;2.70;;;;;;;9.75;77.03;100526.34;4163664;28;20037;-60
2023/12/29 06:08:09;;;;;;;4.13;2.67;;;;;;;9.73;77.26;100533.22;4165491;28;20029;-59
2023/12/29 06:10:12;;;;;;;5.20;2.70;;;;;;;9.68;77.40;100521.88;4162890;28;20051;-60
2023/12/29 06:12:14;;;;;;;4.70;2.75;;;;;;;9.77;77.41;100527.22;4165424;28;20498;-60
2023/12/29 06:14:17;;;;;;;4.15;2.65;;;;;;;9.69;77.64;100525.34;4159307;28;20071;-60
2023/12/29 06:16:21;;;;;;;6.45;2.47;;;;;;;9.58;77.69;100527.75;4159621;28;20045;-61
2023/12/29 06:18:25;;;;;;;3.58;2.72;;;;;;;9.65;77.65;100528.72;4162605;28;20124;-60
2023/12/29 06:20:29;;;;;;;3.88;2.30;;;;;;;9.56;78.39;100532.00;4164246;28;20037;-60
2023/12/29 06:22:31;;;;;;;3.83;2.17;;;;;;;9.68;77.87;100540.06;4162838;28;20084;-59
2023/12/29 06:24:34;;;;;;;3.05;2.25;;;;;;;9.65;78.25;100532.22;4165074;28;20064;-59
2023/12/29 06:26:41;;;;;;;2.30;2.03;;;;;;;9.74;77.78;100534.09;4164936;28;20045;-58
2023/12/29 06:28:44;;;;;;;3.38;2.40;;;;;;;9.75;77.67;100534.13;4163141;28;20038;-59
2023/12/29 06:30:47;;;;;;;3.33;2.28;;;;;;;9.72;77.82;100526.25;4162323;28;20045;-59
2023/12/29 06:32:51;;;;;;;3.63;2.50;;;;;;;9.56;77.96;100530.31;4164422;28;20453;-60
2023/12/29 06:34:55;;;;;;;2.38;1.98;;;;;;;9.55;78.43;100546.72;4163644;28;20535;-60
2023/12/29 06:36:58;;;;;;;4.35;2.25;;;;;;;9.57;78.01;100536.38;4159677;28;20091;-59
2023/12/29 06:39:01;;;;;;;3.20;1.98;;;;;;;9.60;78.62;100531.22;4160420;28;20037;-59
2023/12/29 06:41:04;;;;;;;3.05;1.95;;;;;;;9.66;77.73;100540.84;4159290;28;20044;-60
2023/12/29 06:43:07;;;;;;;3.67;1.98;;;;;;;9.60;77.99;100532.09;4161064;28;20128;-59
2023/12/29 06:45:10;;;;;;;2.20;1.95;;;;;;;9.68;76.94;100539.16;4163768;28;20045;-60
2023/12/29 06:47:13;;;;;;;2.92;1.90;;;;;;;9.63;76.27;100536.47;4165585;28;20037;-58
2023/12/29 06:49:18;;;;;;;2.90;1.80;;;;;;;9.67;76.48;100540.03;4161717;28;20042;-58
2023/12/29 06:51:23;;;;;;;7.28;2.15;;;;;;;9.77;75.48;100528.97;4162077;28;20120;-59
2023/12/29 06:53:26;;;;;;;2.25;1.60;;;;;;;9.79;74.92;100525.53;4163910;28;20033;-59
2023/12/29 06:55:28;;;;;;;2.50;1.70;;;;;;;9.83;74.75;100520.38;4159979;28;20040;-57
2023/12/29 06:57:31;;;;;;;3.47;1.70;;;;;;;9.92;74.47;100511.03;4163728;28;20037;-58
2023/12/29 06:59:34;;;;;;;2.08;1.52;;;;;;;9.89;74.88;100523.13;4152358;28;20073;-59
2023/12/29 07:01:39;;;;;;;2.65;1.80;;;;;;;9.88;74.74;100517.03;4163741;28;20394;-60
2023/12/29 07:03:43;;;;;;;2.00;1.42;;;;;;;9.99;74.30;100522.44;4163751;28;20049;-59
2023/12/29 07:05:47;;;;;;;3.10;1.60;;;;;;;10.14;73.03;100514.88;4159804;28;20037;-59
2023/12/29 07:07:50;;;;;;;3.53;1.77;;;;;;;10.06;72.52;100521.69;4164434;28;20144;-58
2023/12/29 07:09:53;;;;;;;2.72;1.58;;;;;;;10.04;73.37;100518.19;4163628;28;20394;-58
2023/12/29 07:11:56;;;;;;;2.40;1.50;;;;;;;9.94;73.46;100516.25;4162591;28;20033;-60
2023/12/29 07:13:59;;;;;;;4.03;1.70;;;;;;;9.97;73.08;100521.50;4159766;28;20033;-60
2023/12/29 07:16:02;;;;;;;4.40;1.60;;;;;;;9.90;73.17;100522.25;4158982;28;20049;-58
2023/12/29 07:18:06;;;;;;;3.00;1.80;;;;;;;9.94;72.41;100526.66;4169482;28;20056;-58
2023/12/29 07:20:09;;;;;;;3.75;1.60;;;;;;;9.94;73.14;100537.94;4164723;28;20052;-59
2023/12/29 07:22:13;;;;;;;1.80;1.42;;;;;;;9.98;72.58;100538.00;4160565;28;20046;-58
2023/12/29 07:24:16;;;;;;;1.92;1.30;;;;;;;10.06;72.04;100544.16;4163584;28;20033;-59
2023/12/29 07:26:20;;;;;;;2.22;1.60;;;;;;;10.05;72.32;100543.31;4162130;28;20041;-60
2023/12/29 07:28:23;;;;;;;2.80;1.67;;;;;;;10.09;71.77;100542.53;4159411;28;20459;-58
2023/12/29 07:30:25;;;;;;;2.28;1.75;;;;;;;10.10;71.60;100535.59;4161347;28;20430;-59
2023/12/29 07:32:29;;;;;;;2.28;1.65;;;;;;;10.16;71.73;100532.22;4163523;28;20476;-60
2023/12/29 07:34:32;;;;;;;2.95;1.48;;;;;;;10.06;72.14;100541.56;4163158;28;20041;-60
2023/12/29 07:36:39;;;;;;;2.47;1.67;;;;;;;10.12;71.89;100542.56;4159213;28;20037;-59
2023/12/29 07:38:43;;;;;;;4.63;1.70;;;;;;;10.09;71.76;100547.72;4163415;28;20037;-60
2023/12/29 07:40:47;;;;;;;1.58;1.45;;;;;;;10.06;72.13;100547.66;4164270;28;20487;-57
2023/12/29 07:42:50;;;;;;;4.85;1.58;;;;;;;10.09;71.01;100541.63;4176263;28;20044;-59
2023/12/29 07:44:56;;;;;;;2.92;1.60;;;;;;;10.11;70.81;100546.00;4160333;28;20045;-58
2023/12/29 07:46:59;;;;;;;3.05;1.50;;;;;;;10.12;71.24;100542.56;4162253;28;20523;-59
2023/12/29 07:49:02;;;;;;;3.42;1.45;;;;;;;10.14;70.26;100542.59;4162072;28;20038;-59
2023/12/29 07:51:07;;;;;;;3.03;1.40;;;;;;;10.12;69.71;100536.50;4160182;28;20504;-60
2023/12/29 07:53:10;;;;;;;2.10;1.35;;;;;;;10.14;70.23;100540.00;4163499;28;20491;-56
2023/12/29 07:55:16;;;;;;;1.75;1.33;;;;;;;10.13;70.59;100546.94;4163570;28;20099;-60
2023/12/29 07:57:19;;;;;;;3.03;1.67;;;;;;;10.22;69.39;100542.72;4164031;28;20552;-60
2023/12/29 07:59:22;;;;;;;3.53;1.65;;;;;;;10.39;69.26;100543.03;4163816;28;20479;-57
2023/12/29 08:01:25;;;;;;;1.65;1.40;;;;;;;10.29;69.53;100541.97;4156769;28;20136;-60
2023/12/29 08:03:28;;;;;;;1.83;1.23;;;;;;;10.34;69.54;100539.47;4171242;28;20037;-59
2023/12/29 08:05:31;;;;;;;2.05;1.38;;;;;;;10.42;68.97;100541.34;4164379;28;20570;-59
2023/12/29 08:07:34;;;;;;;1.88;1.30;;;;;;;10.32;68.66;100544.63;4158865;28;20044;-57
2023/12/29 08:09:37;;;;;;;2.50;1.50;;;;;;;10.28;68.93;100545.44;4161894;28;20112;-60
2023/12/29 08:11:42;;;;;;;2.38;1.48;;;;;;;10.35;69.07;100543.84;4163855;28;20037;-57
2023/12/29 08:13:48;;;;;;;2.45;1.40;;;;;;;10.37;69.22;100543.03;4162109;28;20125;-59
2023/12/29 08:15:51;;;;;;;2.15;1.40;;;;;;;10.44;68.97;100555.25;4159537;28;20080;-57
2023/12/29 08:17:54;;;;;;;2.22;1.27;;;;;;;10.47;68.42;100547.50;4163784;28;20037;-60
2023/12/29 08:19:57;;;;;;;2.67;1.27;;;;;;;10.51;68.17;100547.56;4157056;28;20037;-57
2023/12/29 08:22:00;;;;;;;3.47;1.50;;;;;;;10.53;68.83;100536.34;4161268;28;21500;-57
2023/12/29 08:24:02;;;;;;;2.28;1.40;;;;;;;10.54;69.04;100545.00;4161090;28;20045;-57
2023/12/29 08:26:05;;;;;;;3.08;1.35;;;;;;;10.57;69.23;100553.75;4162663;28;20091;-60
2023/12/29 08:28:09;;;;;;;3.47;1.45;;;;;;;10.50;68.89;100553.59;4162460;28;20048;-58
2023/12/29 08:30:13;;;;;;;2.40;1.20;;;;;;;10.49;69.80;100547.53;4164975;28;20072;-59
2023/12/29 08:32:16;;;;;;;1.67;1.35;;;;;;;10.49;69.29;100557.94;4163153;28;20441;-58
2023/12/29 08:34:20;;;;;;;1.67;1.30;;;;;;;10.42;69.46;100550.88;4165279;28;20041;-58
2023/12/29 08:36:25;;;;;;;;;;;;;;;10.39;69.25;100550.84;4166182;28;20121;-59
2023/12/29 08:38:28;;;;;;;1.35;1.20;;;;;;;10.45;68.84;100546.63;4166562;28;19929;-59
2023/12/29 08:40:30;;;;;;;1.60;1.25;;;;;;;10.47;69.10;100533.66;4166140;28;20372;-59
2023/12/29 08:42:33;;;;;;;3.03;2.00;;;;;;;10.55;68.52;100538.97;4165050;28;20041;-59
2023/12/29 08:44:37;;;;;;;2.72;1.52;;;;;;;10.60;68.29;100543.38;4166393;28;20128;-59
2023/12/29 08:46:40;;;;;;;1.75;1.20;;;;;;;10.56;68.75;100545.91;4164342;28;20072;-59
2023/12/29 08:48:43;;;;;;;1.85;1.35;;;;;;;10.68;68.61;100553.03;4159866;28;20395;-58
2023/12/29 08:50:46;;;;;;;3.78;1.38;;;;;;;10.69;68.92;100542.66;4164640;28;20090;-59
2023/12/29 08:52:49;;;;;;;3.15;1.52;;;;;;;10.74;68.78;100553.97;4166745;28;20071;-58
2023/12/29 08:54:52;;;;;;;1.98;1.20;;;;;;;10.66;69.01;100555.59;4151385;28;20038;-59
2023/12/29 08:56:54;;;;;;;2.30;1.25;;;;;;;10.72;68.33;100558.28;4152211;28;20079;-59
2023/12/29 08:58:57;;;;;;;3.70;1.38;;;;;;;10.70;68.35;100551.31;4168099;28;20275;-58
2023/12/29 09:01:01;;;;;;;4.93;1.65;;;;;;;10.78;68.32;100553.19;4165272;28;20509;-63
2023/12/29 09:03:05;;;;;;;1.95;1.30;;;;;;;10.86;67.45;100555.88;4165110;28;20048;-63
2023/12/29 09:05:09;;;;;;;1.80;1.10;;;;;;;10.90;67.41;100556.81;4163878;28;20073;-65
2023/12/29 09:07:11;;;;;;;1.67;1.50;;;;;;;10.98;68.09;100560.38;4165677;28;20388;-66
2023/12/29 09:09:15;;;;;;;3.35;1.27;;;;;;;10.97;67.75;100550.84;4165371;28;20037;-65
2023/12/29 09:11:18;;;;;;;1.67;1.10;;;;;;;10.93;67.90;100554.25;4164621;28;20037;-63
2023/12/29 09:13:22;;;;;;;1.63;1.13;;;;;;;10.96;67.67;100554.31;4166306;28;20037;-63
2023/12/29 09:15:25;;;;;;;3.17;1.40;;;;;;;10.94;68.51;100562.09;4166034;28;20037;-64
2023/12/29 09:17:30;;;;;;;3.78;1.67;;;;;;;10.95;69.34;100555.16;4166866;28;20042;-64
2023/12/29 09:19:33;;;;;;;6.10;2.10;;;;;;;10.92;69.24;100553.41;4166366;28;20403;-64
2023/12/29 09:21:42;;;;;;;3.08;1.70;;;;;;;10.89;70.24;100557.66;4166175;28;20060;-64
2023/12/29 09:23:45;;;;;;;3.50;1.65;;;;;;;10.83;71.12;100555.84;4165226;28;20132;-64
2023/12/29 09:25:49;;;;;;;4.50;2.33;;;;;;;10.79;71.70;100557.53;4164031;28;20095;-64
2023/12/29 09:27:53;;;;;;;6.45;2.30;;;;;;;10.73;71.53;100573.06;4162495;28;20041;-64
2023/12/29 09:29:56;;;;;;;3.38;2.20;;;;;;;10.76;71.33;100562.69;4166261;28;20033;-62
2023/12/29 09:31:58;;;;;;;4.15;2.95;;;;;;;10.69;72.02;100553.06;4166304;28;20041;-63
2023/12/29 09:34:02;;;;;;;4.88;2.35;;;;;;;10.69;72.80;100554.75;4159634;28;20096;-63
2023/12/29 09:36:06;;;;;;;3.30;2.05;;;;;;;10.60;72.95;100556.38;4163945;28;20042;-63
2023/12/29 09:38:10;;;;;;;4.17;2.63;;;;;;;10.58;72.59;100557.19;4166047;28;20071;-63